createdAt,value
2019-04-11T00:00:50.622Z,10.32
2019-04-11T00:01:52.990Z,10.31
2019-04-11T00:02:51.106Z,10.39
2019-04-11T00:03:51.367Z,10.29
2019-04-11T00:04:50.409Z,10.34
2019-04-11T00:05:50.800Z,10.26
2019-04-11T00:06:50.220Z,10.26
2019-04-11T00:07:50.208Z,10.26
2019-04-11T00:08:50.222Z,10.29
2019-04-11T00:09:51.217Z,10.28
2019-04-11T00:10:50.185Z,10.31
2019-04-11T00:11:50.394Z,10.26
2019-04-11T00:12:50.584Z,10.28
2019-04-11T00:13:50.144Z,10.26
2019-04-11T00:14:50.124Z,10.29
2019-04-11T00:15:50.876Z,10.32
2019-04-11T00:16:50.102Z,10.36
2019-04-11T00:17:50.237Z,10.39
2019-04-11T00:18:51.316Z,10.38
2019-04-11T00:19:50.068Z,10.32
2019-04-11T00:20:50.592Z,10.36
2019-04-11T00:21:50.044Z,10.26
2019-04-11T00:22:51.262Z,10.29
2019-04-11T00:23:50.326Z,10.28
2019-04-11T00:24:50.011Z,10.18
2019-04-11T00:25:49.997Z,10.26
2019-04-11T00:26:50.729Z,10.26
2019-04-11T00:27:51.014Z,10.29
2019-04-11T00:28:50.144Z,10.25
2019-04-11T00:29:49.950Z,10.28
2019-04-11T00:30:50.479Z,10.26
2019-04-11T00:31:49.926Z,10.26
2019-04-11T00:32:49.913Z,10.35
2019-04-11T00:33:50.814Z,10.39
2019-04-11T00:34:51.092Z,10.42
2019-04-11T00:35:50.228Z,10.44
2019-04-11T00:36:49.867Z,10.44
2019-04-11T00:37:49.856Z,10.47
2019-04-11T00:38:49.988Z,10.38
2019-04-11T00:39:50.050Z,10.47
2019-04-11T00:40:49.821Z,10.43
2019-04-11T00:41:50.291Z,10.38
2019-04-11T00:42:50.532Z,10.44
2019-04-11T00:43:50.475Z,10.39
2019-04-11T00:44:49.773Z,10.60
2019-04-11T00:45:49.810Z,10.57
2019-04-11T00:46:50.817Z,10.49
2019-04-11T00:47:49.738Z,10.49
2019-04-11T00:48:50.328Z,10.58
2019-04-11T00:49:50.452Z,10.57
2019-04-11T00:50:49.704Z,10.66
2019-04-11T00:51:49.989Z,10.65
2019-04-11T00:52:49.738Z,10.65
2019-04-11T00:53:49.968Z,10.62
2019-04-11T00:54:49.657Z,10.62
2019-04-11T00:55:49.645Z,10.70
2019-04-11T00:56:50.609Z,10.66
2019-04-11T00:57:49.623Z,10.68
2019-04-11T00:58:49.927Z,10.78
2019-04-11T00:59:49.834Z,10.84
2019-04-11T01:00:49.601Z,10.88
2019-04-11T01:01:50.066Z,10.84
2019-04-11T01:02:49.670Z,10.86
2019-04-11T01:03:49.642Z,10.91
2019-04-11T01:04:50.796Z,10.88
2019-04-11T01:05:49.903Z,10.87
2019-04-11T01:06:50.152Z,10.84
2019-04-11T01:07:49.506Z,10.80
2019-04-11T01:08:49.495Z,10.69
2019-04-11T01:09:50.609Z,10.72
2019-04-11T01:10:49.737Z,10.62
2019-04-11T01:11:49.460Z,10.66
2019-04-11T01:12:49.907Z,10.52
2019-04-11T01:13:53.496Z,10.54
2019-04-11T01:14:49.426Z,10.66
2019-04-11T01:15:49.414Z,10.57
2019-04-11T01:16:50.450Z,10.49
2019-04-11T01:17:49.732Z,10.44
2019-04-11T01:18:49.988Z,10.47
2019-04-11T01:19:49.367Z,10.46
2019-04-11T01:20:49.355Z,10.35
2019-04-11T01:21:49.345Z,10.43
2019-04-11T01:22:49.335Z,10.39
2019-04-11T01:23:49.323Z,10.39
2019-04-11T01:24:50.281Z,10.49
2019-04-11T01:25:49.299Z,10.49
2019-04-11T01:26:49.688Z,10.43
2019-04-11T01:27:50.027Z,10.36
2019-04-11T01:28:49.267Z,10.46
2019-04-11T01:29:49.531Z,10.43
2019-04-11T01:30:49.325Z,10.35
2019-04-11T01:31:49.594Z,10.38
2019-04-11T01:32:49.216Z,10.39
2019-04-11T01:33:49.203Z,10.57
2019-04-11T01:34:49.194Z,10.54
2019-04-11T01:35:49.897Z,10.55
2019-04-11T01:36:49.170Z,10.51
2019-04-11T01:37:50.156Z,10.51
2019-04-11T01:38:49.146Z,10.68
2019-04-11T01:39:49.600Z,10.62
2019-04-11T01:40:49.809Z,10.65
2019-04-11T01:41:49.111Z,10.70
2019-04-11T01:42:49.278Z,10.75
2019-04-11T01:43:56.106Z,10.70
2019-04-11T01:44:49.332Z,10.69
2019-04-11T01:45:49.683Z,10.80
2019-04-11T01:46:49.051Z,10.73
2019-04-11T01:47:49.038Z,10.66
2019-04-11T01:48:50.059Z,10.63
2019-04-11T01:49:49.016Z,10.54
2019-04-11T01:50:50.250Z,10.62
2019-04-11T01:51:49.780Z,10.63
2019-04-11T01:52:48.984Z,10.62
2019-04-11T01:53:48.975Z,10.70
2019-04-11T01:54:49.999Z,10.69
2019-04-11T01:55:48.951Z,10.69
2019-04-11T01:56:49.532Z,10.68
2019-04-11T01:57:49.903Z,10.73
2019-04-11T01:58:48.993Z,10.69
2019-04-11T01:59:48.908Z,10.69
2019-04-11T02:00:48.898Z,10.63
2019-04-11T02:01:49.369Z,10.70
2019-04-11T02:02:48.869Z,10.60
2019-04-11T02:03:49.760Z,10.60
2019-04-11T02:04:49.134Z,10.49
2019-04-11T02:05:49.485Z,10.65
2019-04-11T02:06:49.897Z,10.60
2019-04-11T02:07:49.036Z,10.68
2019-04-11T02:08:49.346Z,10.68
2019-04-11T02:09:48.797Z,10.60
2019-04-11T02:10:48.824Z,10.60
2019-04-11T02:11:49.872Z,10.62
2019-04-11T02:12:48.756Z,10.60
2019-04-11T02:13:48.743Z,10.63
2019-04-11T02:14:48.735Z,10.68
2019-04-11T02:15:48.734Z,10.58
2019-04-11T02:16:50.633Z,10.73
2019-04-11T02:17:48.850Z,10.70
2019-04-11T02:18:49.794Z,10.69
2019-04-11T02:19:48.675Z,10.73
2019-04-11T02:20:49.290Z,10.81
2019-04-11T02:21:49.633Z,10.83
2019-04-11T02:22:48.811Z,10.70
2019-04-11T02:23:48.634Z,10.72
2019-04-11T02:24:48.617Z,10.73
2019-04-11T02:25:49.033Z,10.68
2019-04-11T02:26:48.593Z,10.76
2019-04-11T02:27:48.583Z,10.70
2019-04-11T02:28:48.807Z,10.76
2019-04-11T02:29:48.839Z,10.73
2019-04-11T02:30:48.738Z,10.72
2019-04-11T02:31:48.552Z,10.63
2019-04-11T02:32:49.856Z,10.75
2019-04-11T02:33:48.950Z,10.65
2019-04-11T02:34:50.440Z,10.72
2019-04-11T02:35:49.241Z,10.70
2019-04-11T02:36:49.086Z,10.58
2019-04-11T02:37:51.549Z,10.65
2019-04-11T02:38:54.170Z,10.60
2019-04-11T02:39:49.423Z,10.62
2019-04-11T02:40:49.985Z,10.73
2019-04-11T02:41:48.424Z,10.62
2019-04-11T02:42:49.842Z,10.62
2019-04-11T02:43:49.099Z,10.51
2019-04-11T02:45:03.557Z,10.49
2019-04-11T02:45:58.099Z,10.60
2019-04-11T02:46:58.130Z,10.52
2019-04-11T02:47:50.974Z,10.51
2019-04-11T02:48:49.704Z,10.43
2019-04-11T02:49:49.597Z,10.44
2019-04-11T02:50:50.214Z,10.34
2019-04-11T02:51:49.520Z,10.34
2019-04-11T02:52:49.824Z,10.39
2019-04-11T02:53:49.541Z,10.32
2019-04-11T02:54:49.312Z,10.36
2019-04-11T02:55:49.644Z,10.42
2019-04-11T02:56:50.260Z,10.36
2019-04-11T02:57:48.842Z,10.31
2019-04-11T02:58:48.357Z,10.35
2019-04-11T02:59:48.993Z,10.46
2019-04-11T03:00:50.271Z,10.36
2019-04-11T03:01:48.604Z,10.46
2019-04-11T03:02:50.297Z,10.39
2019-04-11T03:03:49.710Z,10.38
2019-04-11T03:04:48.363Z,10.43
2019-04-11T03:05:48.525Z,10.39
2019-04-11T03:06:49.456Z,10.43
2019-04-11T03:07:49.642Z,10.44
2019-04-11T03:08:49.008Z,10.36
2019-04-11T03:09:48.874Z,10.36
2019-04-11T03:10:49.234Z,10.35
2019-04-11T03:11:49.392Z,10.44
2019-04-11T03:12:48.599Z,10.42
2019-04-11T03:13:48.699Z,10.29
2019-04-11T03:15:05.460Z,10.32
2019-04-11T03:16:00.517Z,10.29
2019-04-11T03:16:57.510Z,10.29
2019-04-11T03:17:49.444Z,10.22
2019-04-11T03:19:08.655Z,10.28
2019-04-11T03:20:04.322Z,10.28
2019-04-11T03:20:55.096Z,10.26
2019-04-11T03:21:49.931Z,10.16
2019-04-11T03:22:54.869Z,10.26
2019-04-11T03:23:49.318Z,10.28
2019-04-11T03:24:49.175Z,10.24
2019-04-11T03:25:49.070Z,10.28
2019-04-11T03:26:49.644Z,10.26
2019-04-11T03:27:49.285Z,10.20
2019-04-11T03:28:50.230Z,10.24
2019-04-11T03:29:49.321Z,10.18
2019-04-11T03:31:13.108Z,10.13
2019-04-11T03:32:32.127Z,10.18
2019-04-11T03:33:49.663Z,10.09
2019-04-11T03:34:41.662Z,10.10
2019-04-11T03:37:21.134Z,9.99
2019-04-11T03:38:13.789Z,10.06
2019-04-11T03:39:11.615Z,10.07
2019-04-11T03:40:07.996Z,10.09
2019-04-11T03:41:05.914Z,10.01
2019-04-11T03:42:07.971Z,10.01
2019-04-11T03:43:04.136Z,10.02
2019-04-11T03:43:58.051Z,10.06
2019-04-11T03:45:09.954Z,10.10
2019-04-11T03:46:05.218Z,10.07
2019-04-11T03:47:06.942Z,10.01
2019-04-11T03:48:04.369Z,10.01
2019-04-11T03:49:00.158Z,9.98
2019-04-11T03:49:53.215Z,10.01
2019-04-11T03:50:49.059Z,9.98
2019-04-11T03:51:48.101Z,10.02
2019-04-11T03:52:49.340Z,10.07
2019-04-11T03:53:48.930Z,10.07
2019-04-11T03:54:47.713Z,10.09
2019-04-11T03:55:47.561Z,10.07
2019-04-11T03:56:49.256Z,10.06
2019-04-11T03:57:49.016Z,10.07
2019-04-11T03:58:48.220Z,10.04
2019-04-11T03:59:47.945Z,10.07
2019-04-11T04:00:50.379Z,10.07
2019-04-11T04:01:48.702Z,10.13
2019-04-11T04:02:48.880Z,10.01
2019-04-11T04:03:48.828Z,10.11
2019-04-11T04:04:49.222Z,10.11
2019-04-11T04:05:48.686Z,10.09
2019-04-11T04:06:48.299Z,10.07
2019-04-11T04:07:48.849Z,10.13
2019-04-11T04:08:48.754Z,10.04
2019-04-11T04:09:48.923Z,10.02
2019-04-11T04:10:47.714Z,9.98
2019-04-11T04:11:49.171Z,10.04
2019-04-11T04:12:48.038Z,9.96
2019-04-11T04:13:49.287Z,9.89
2019-04-11T04:14:47.335Z,9.81
2019-04-11T04:15:59.968Z,9.85
2019-04-11T04:16:50.257Z,9.80
2019-04-11T04:17:47.685Z,9.86
2019-04-11T04:18:47.829Z,9.86
2019-04-11T04:19:47.726Z,9.85
2019-04-11T04:20:48.795Z,9.98
2019-04-11T04:21:48.893Z,10.01
2019-04-11T04:22:49.620Z,10.04
2019-04-11T04:23:47.246Z,10.02
2019-04-11T04:24:49.149Z,9.98
2019-04-11T04:25:47.471Z,9.96
2019-04-11T04:26:48.492Z,9.75
2019-04-11T04:27:48.997Z,9.99
2019-04-11T04:28:47.674Z,9.91
2019-04-11T04:29:51.243Z,9.88
2019-04-11T04:30:47.166Z,9.88
2019-04-11T04:31:48.840Z,9.86
2019-04-11T04:32:49.109Z,9.85
2019-04-11T04:33:47.669Z,9.99
2019-04-11T04:34:49.030Z,9.98
2019-04-11T04:35:47.614Z,9.85
2019-04-11T04:36:47.362Z,9.91
2019-04-11T04:37:47.457Z,9.91
2019-04-11T04:38:48.615Z,9.93
2019-04-11T04:39:47.991Z,9.88
2019-04-11T04:41:01.410Z,10.02
2019-04-11T04:41:54.053Z,9.93
2019-04-11T04:42:52.087Z,9.93
2019-04-11T04:43:48.271Z,9.92
2019-04-11T04:44:48.801Z,9.91
2019-04-11T04:46:03.578Z,9.89
2019-04-11T04:46:58.062Z,9.95
2019-04-11T04:47:53.993Z,9.91
2019-04-11T04:48:49.195Z,10.02
2019-04-11T04:49:48.187Z,9.95
2019-04-11T04:50:48.798Z,9.92
2019-04-11T04:51:47.798Z,9.92
2019-04-11T04:52:46.889Z,9.92
2019-04-11T04:53:48.110Z,9.92
2019-04-11T04:54:48.355Z,9.99
2019-04-11T04:55:47.865Z,9.99
2019-04-11T04:56:47.341Z,10.04
2019-04-11T04:57:46.826Z,10.01
2019-04-11T04:58:48.444Z,10.10
2019-04-11T04:59:46.983Z,10.04
2019-04-11T05:00:48.439Z,10.11
2019-04-11T05:01:48.243Z,10.09
2019-04-11T05:02:48.019Z,10.10
2019-04-11T05:03:48.579Z,10.16
2019-04-11T05:04:47.866Z,10.14
2019-04-11T05:05:46.731Z,10.09
2019-04-11T05:06:48.970Z,10.07
2019-04-11T05:07:47.039Z,10.07
2019-04-11T05:08:47.183Z,10.07
2019-04-11T05:09:48.031Z,10.06
2019-04-11T05:10:47.085Z,9.96
2019-04-11T05:11:46.768Z,9.99
2019-04-11T05:12:46.648Z,10.04
2019-04-11T05:13:49.299Z,9.92
2019-04-11T05:14:47.771Z,9.96
2019-04-11T05:15:46.612Z,10.01
2019-04-11T05:16:46.600Z,10.01
2019-04-11T05:17:46.587Z,9.99
2019-04-11T05:18:46.578Z,9.96
2019-04-11T05:19:46.637Z,9.93
2019-04-11T05:20:46.553Z,9.91
2019-04-11T05:21:47.753Z,9.96
2019-04-11T05:22:47.238Z,9.83
2019-04-11T05:23:46.516Z,9.80
2019-04-11T05:24:47.514Z,9.81
2019-04-11T05:25:46.677Z,9.73
2019-04-11T05:26:46.482Z,9.74
2019-04-11T05:27:47.493Z,9.75
2019-04-11T05:28:46.464Z,9.74
2019-04-11T05:29:46.446Z,9.77
2019-04-11T05:30:46.439Z,9.80
2019-04-11T05:31:47.028Z,9.67
2019-04-11T05:32:47.202Z,9.73
2019-04-11T05:33:47.538Z,9.73
2019-04-11T05:34:46.389Z,9.62
2019-04-11T05:35:46.446Z,9.65
2019-04-11T05:36:47.189Z,9.68
2019-04-11T05:37:47.151Z,9.71
2019-04-11T05:38:46.432Z,9.60
2019-04-11T05:39:46.328Z,9.53
2019-04-11T05:40:46.315Z,9.40
2019-04-11T05:41:47.169Z,9.40
2019-04-11T05:42:50.032Z,9.40
2019-04-11T05:43:47.375Z,9.37
2019-04-11T05:44:47.078Z,9.41
2019-04-11T05:45:48.518Z,9.53
2019-04-11T05:46:54.930Z,9.37
2019-04-11T05:47:51.675Z,9.45
2019-04-11T05:48:47.227Z,9.58
2019-04-11T05:49:46.649Z,9.65
2019-04-11T05:50:49.521Z,9.59
2019-04-11T05:51:47.579Z,9.70
2019-04-11T05:52:46.197Z,9.56
2019-04-11T05:53:48.595Z,9.58
2019-04-11T05:54:48.906Z,9.62
2019-04-11T05:55:47.482Z,9.63
2019-04-11T05:56:52.114Z,9.73
2019-04-11T05:57:46.892Z,9.73
2019-04-11T05:58:47.448Z,9.60
2019-04-11T05:59:52.076Z,9.75
2019-04-11T06:00:46.602Z,9.67
2019-04-11T06:01:46.572Z,9.80
2019-04-11T06:02:46.055Z,9.77
2019-04-11T06:03:48.785Z,9.81
2019-04-11T06:04:49.985Z,9.88
2019-04-11T06:05:46.469Z,9.89
2019-04-11T06:06:46.558Z,9.85
2019-04-11T06:07:48.978Z,9.96
2019-04-11T06:08:46.168Z,9.81
2019-04-11T06:09:46.248Z,9.86
2019-04-11T06:10:46.605Z,9.95
2019-04-11T06:11:50.335Z,9.98
2019-04-11T06:12:45.947Z,9.92
2019-04-11T06:13:46.809Z,9.92
2019-04-11T06:14:47.080Z,9.98
2019-04-11T06:15:47.096Z,9.95
2019-04-11T06:16:49.191Z,9.99
2019-04-11T06:17:46.185Z,10.04
2019-04-11T06:18:45.999Z,9.98
2019-04-11T06:19:45.902Z,9.96
2019-04-11T06:20:45.842Z,9.96
2019-04-11T06:21:46.423Z,9.96
2019-04-11T06:22:45.817Z,9.91
2019-04-11T06:23:45.805Z,9.96
2019-04-11T06:24:45.795Z,9.78
2019-04-11T06:25:46.816Z,9.98
2019-04-11T06:26:46.953Z,9.81
2019-04-11T06:27:45.758Z,9.92
2019-04-11T06:28:45.751Z,9.91
2019-04-11T06:29:45.733Z,9.83
2019-04-11T06:30:45.736Z,9.81
2019-04-11T06:31:45.711Z,9.78
2019-04-11T06:32:45.891Z,9.85
2019-04-11T06:33:46.898Z,9.85
2019-04-11T06:34:45.675Z,9.83
2019-04-11T06:35:46.319Z,9.81
2019-04-11T06:36:46.927Z,9.75
2019-04-11T06:37:45.753Z,9.85
2019-04-11T06:38:45.634Z,9.73
2019-04-11T06:39:45.617Z,9.67
2019-04-11T06:40:46.064Z,9.70
2019-04-11T06:41:46.509Z,9.68
2019-04-11T06:42:45.588Z,9.58
2019-04-11T06:43:45.569Z,9.58
2019-04-11T06:44:46.072Z,9.53
2019-04-11T06:45:46.133Z,9.59
2019-04-11T06:46:53.719Z,9.50
2019-04-11T06:47:45.525Z,9.37
2019-04-11T06:48:45.569Z,9.37
2019-04-11T06:49:46.686Z,9.30
2019-04-11T06:50:45.484Z,9.24
2019-04-11T06:51:46.332Z,9.26
2019-04-11T06:52:45.470Z,9.24
2019-04-11T06:53:45.449Z,9.27
2019-04-11T06:54:45.524Z,9.31
2019-04-11T06:55:45.426Z,9.27
2019-04-11T06:56:45.581Z,9.35
2019-04-11T06:57:45.889Z,9.30
2019-04-11T06:58:45.738Z,9.16
2019-04-11T06:59:45.378Z,9.20
2019-04-11T07:00:45.366Z,9.10
2019-04-11T07:01:45.473Z,9.13
2019-04-11T07:02:46.543Z,9.00
2019-04-11T07:03:45.329Z,9.01
2019-04-11T07:04:46.300Z,9.15
2019-04-11T07:05:45.303Z,9.16
2019-04-11T07:06:46.029Z,9.10
2019-04-11T07:07:45.300Z,9.12
2019-04-11T07:08:45.268Z,9.17
2019-04-11T07:09:45.256Z,9.27
2019-04-11T07:10:45.246Z,9.17
2019-04-11T07:11:45.233Z,9.15
2019-04-11T07:12:45.219Z,9.26
2019-04-11T07:13:45.545Z,9.12
2019-04-11T07:14:45.541Z,9.32
2019-04-11T07:15:46.338Z,9.22
2019-04-11T07:16:45.171Z,9.31
2019-04-11T07:17:45.908Z,9.37
2019-04-11T07:18:46.389Z,9.50
2019-04-11T07:19:45.858Z,9.50
2019-04-11T07:20:45.723Z,9.45
2019-04-11T07:21:46.145Z,9.53
2019-04-11T07:22:45.093Z,9.59
2019-04-11T07:23:45.085Z,9.56
2019-04-11T07:24:45.344Z,9.58
2019-04-11T07:25:45.210Z,9.55
2019-04-11T07:26:45.874Z,9.68
2019-04-11T07:27:45.124Z,9.75
2019-04-11T07:28:45.034Z,9.71
2019-04-11T07:29:45.009Z,9.71
2019-04-11T07:30:45.307Z,9.75
2019-04-11T07:31:46.154Z,9.73
2019-04-11T07:32:45.183Z,9.67
2019-04-11T07:33:45.154Z,9.70
2019-04-11T07:34:45.736Z,9.71
2019-04-11T07:35:45.207Z,9.74
2019-04-11T07:36:46.172Z,9.74
2019-04-11T07:37:44.913Z,9.74
2019-04-11T07:38:45.546Z,9.80
2019-04-11T07:39:45.112Z,9.77
2019-04-11T07:40:44.884Z,9.81
2019-04-11T07:41:45.625Z,9.89
2019-04-11T07:42:44.854Z,9.88
2019-04-11T07:43:44.841Z,9.88
2019-04-11T07:44:45.157Z,9.88
2019-04-11T07:45:44.816Z,9.99
2019-04-11T07:46:44.800Z,10.02
2019-04-11T07:47:45.975Z,10.06
2019-04-11T07:48:44.783Z,10.18
2019-04-11T07:49:45.020Z,10.20
2019-04-11T07:50:44.756Z,10.29
2019-04-11T07:51:45.015Z,10.29
2019-04-11T07:52:44.868Z,10.29
2019-04-11T07:53:45.950Z,10.31
2019-04-11T07:54:45.642Z,10.43
2019-04-11T07:55:44.695Z,10.36
2019-04-11T07:56:44.683Z,10.44
2019-04-11T07:57:44.801Z,10.35
2019-04-11T07:58:45.763Z,10.47
2019-04-11T07:59:44.655Z,10.49
2019-04-11T08:00:48.899Z,10.43
2019-04-11T08:01:44.796Z,10.58
2019-04-11T08:02:45.588Z,10.52
2019-04-11T08:03:44.724Z,10.49
2019-04-11T08:04:45.166Z,10.51
2019-04-11T08:05:44.697Z,10.57
2019-04-11T08:06:45.611Z,10.54
2019-04-11T08:07:44.911Z,10.39
2019-04-11T08:08:44.549Z,10.49
2019-04-11T08:09:44.532Z,10.55
2019-04-11T08:10:45.642Z,10.52
2019-04-11T08:11:44.510Z,10.54
2019-04-11T08:12:45.571Z,10.66
2019-04-11T08:13:45.038Z,10.63
2019-04-11T08:14:44.654Z,10.63
2019-04-11T08:15:44.461Z,10.72
2019-04-11T08:16:44.911Z,10.84
2019-04-11T08:17:44.572Z,10.78
2019-04-11T08:18:45.363Z,10.93
2019-04-11T08:19:44.417Z,10.90
2019-04-11T08:20:45.635Z,10.88
2019-04-11T08:21:44.395Z,10.93
2019-04-11T08:22:45.494Z,10.88
2019-04-11T08:23:45.639Z,10.91
2019-04-11T08:24:44.912Z,10.98
2019-04-11T08:25:45.247Z,10.84
2019-04-11T08:26:44.434Z,10.81
2019-04-11T08:27:54.902Z,10.63
2019-04-11T08:28:45.500Z,10.54
2019-04-11T08:29:44.439Z,10.51
2019-04-11T08:30:44.295Z,10.43
2019-04-11T08:31:44.571Z,10.43
2019-04-11T08:32:44.332Z,10.42
2019-04-11T08:33:44.259Z,10.32
2019-04-11T08:34:44.265Z,10.29
2019-04-11T08:35:44.236Z,10.28
2019-04-11T08:36:44.272Z,10.26
2019-04-11T08:37:45.456Z,10.20
2019-04-11T08:38:44.745Z,10.22
2019-04-11T08:39:45.008Z,10.26
2019-04-11T08:40:45.159Z,10.26
2019-04-11T08:41:44.168Z,10.29
2019-04-11T08:42:44.361Z,10.28
2019-04-11T08:43:44.145Z,10.28
2019-04-11T08:44:44.133Z,10.29
2019-04-11T08:45:44.441Z,10.32
2019-04-11T08:46:44.771Z,10.31
2019-04-11T08:47:51.257Z,10.38
2019-04-11T08:48:44.204Z,10.35
2019-04-11T08:49:44.077Z,10.39
2019-04-11T08:50:44.911Z,10.51
2019-04-11T08:51:44.363Z,10.54
2019-04-11T08:52:44.440Z,10.51
2019-04-11T08:53:44.842Z,10.49
2019-04-11T08:54:44.015Z,10.52
2019-04-11T08:55:51.935Z,10.49
2019-04-11T08:56:45.139Z,10.57
2019-04-11T08:57:44.482Z,10.57
2019-04-11T08:58:44.848Z,10.39
2019-04-11T08:59:44.182Z,10.47
2019-04-11T09:00:43.951Z,10.51
2019-04-11T09:01:44.276Z,10.55
2019-04-11T09:02:45.000Z,10.55
2019-04-11T09:03:44.115Z,10.58
2019-04-11T09:04:43.903Z,10.52
2019-04-11T09:05:43.943Z,10.65
2019-04-11T09:06:44.980Z,10.66
2019-04-11T09:07:43.866Z,10.65
2019-04-11T09:08:44.811Z,10.52
2019-04-11T09:09:45.228Z,10.63
2019-04-11T09:10:44.308Z,10.52
2019-04-11T09:11:44.720Z,10.49
2019-04-11T09:12:44.821Z,10.49
2019-04-11T09:13:44.046Z,10.52
2019-04-11T09:14:44.456Z,10.54
2019-04-11T09:15:43.776Z,10.49
2019-04-11T09:16:43.765Z,10.52
2019-04-11T09:17:54.913Z,10.62
2019-04-11T09:18:44.096Z,10.60
2019-04-11T09:19:43.731Z,10.70
2019-04-11T09:20:43.718Z,10.66
2019-04-11T09:21:44.598Z,10.70
2019-04-11T09:22:44.940Z,10.69
2019-04-11T09:23:43.984Z,10.72
2019-04-11T09:24:43.675Z,10.76
2019-04-11T09:25:43.663Z,10.78
2019-04-11T09:26:44.385Z,10.72
2019-04-11T09:27:44.755Z,10.91
2019-04-11T09:28:44.062Z,10.99
2019-04-11T09:29:43.620Z,10.95
2019-04-11T09:30:43.606Z,11.01
2019-04-11T09:31:43.947Z,11.08
2019-04-11T09:32:44.443Z,11.08
2019-04-11T09:33:44.822Z,11.13
2019-04-11T09:34:44.066Z,11.09
2019-04-11T09:35:43.739Z,11.19
2019-04-11T09:36:43.538Z,11.23
2019-04-11T09:37:44.560Z,11.17
2019-04-11T09:38:43.526Z,11.21
2019-04-11T09:39:43.576Z,11.23
2019-04-11T09:40:43.814Z,11.20
2019-04-11T09:41:43.483Z,11.17
2019-04-11T09:42:43.471Z,11.13
2019-04-11T09:43:44.281Z,11.16
2019-04-11T09:44:44.723Z,11.16
2019-04-11T09:45:43.881Z,11.27
2019-04-11T09:46:43.426Z,11.27
2019-04-11T09:47:43.418Z,11.41
2019-04-11T09:48:44.354Z,11.39
2019-04-11T09:49:43.394Z,11.51
2019-04-11T09:50:43.383Z,11.49
2019-04-11T09:51:44.250Z,11.66
2019-04-11T09:52:43.363Z,11.49
2019-04-11T09:53:43.349Z,11.66
2019-04-11T09:54:44.215Z,11.64
2019-04-11T09:55:43.751Z,11.44
2019-04-11T09:56:43.317Z,11.63
2019-04-11T09:57:44.164Z,11.60
2019-04-11T09:58:44.178Z,11.57
2019-04-11T09:59:43.313Z,11.70
2019-04-11T10:00:43.275Z,11.67
2019-04-11T10:01:43.264Z,11.66
2019-04-11T10:02:44.061Z,11.72
2019-04-11T10:03:43.247Z,11.81
2019-04-11T10:04:43.807Z,11.97
2019-04-11T10:05:43.223Z,11.88
2019-04-11T10:06:44.480Z,12.03
2019-04-11T10:07:44.138Z,12.07
2019-04-11T10:08:43.717Z,11.98
2019-04-11T10:09:44.203Z,12.07
2019-04-11T10:10:44.837Z,12.15
2019-04-11T10:11:43.163Z,12.19
2019-04-11T10:12:44.508Z,12.29
2019-04-11T10:13:43.145Z,12.36
2019-04-11T10:14:43.970Z,12.23
2019-04-11T10:15:43.257Z,12.34
2019-04-11T10:16:44.259Z,12.29
2019-04-11T10:17:43.098Z,12.36
2019-04-11T10:18:44.076Z,12.59
2019-04-11T10:19:44.211Z,12.52
2019-04-11T10:20:43.068Z,12.43
2019-04-11T10:21:43.709Z,12.46
2019-04-11T10:22:43.935Z,12.56
2019-04-11T10:23:43.111Z,12.63
2019-04-11T10:24:43.041Z,12.71
2019-04-11T10:25:43.418Z,12.69
2019-04-11T10:26:43.007Z,12.85
2019-04-11T10:27:42.997Z,12.87
2019-04-11T10:28:43.923Z,12.70
2019-04-11T10:29:44.063Z,12.61
2019-04-11T10:30:44.042Z,12.66
2019-04-11T10:31:42.956Z,12.67
2019-04-11T10:32:43.440Z,12.61
2019-04-11T10:33:42.939Z,12.74
2019-04-11T10:34:43.848Z,12.79
2019-04-11T10:35:42.918Z,12.79
2019-04-11T10:36:43.201Z,12.80
2019-04-11T10:37:44.212Z,12.95
2019-04-11T10:38:42.891Z,13.01
2019-04-11T10:39:43.819Z,13.07
2019-04-11T10:40:44.024Z,13.17
2019-04-11T10:41:44.085Z,13.24
2019-04-11T10:42:42.853Z,13.29
2019-04-11T10:43:42.842Z,13.44
2019-04-11T10:44:42.834Z,13.36
2019-04-11T10:45:42.824Z,13.38
2019-04-11T10:46:43.876Z,13.35
2019-04-11T10:47:42.909Z,13.19
2019-04-11T10:48:45.344Z,13.03
2019-04-11T10:49:42.786Z,12.79
2019-04-11T10:50:42.776Z,12.61
2019-04-11T10:51:42.799Z,12.66
2019-04-11T10:52:42.766Z,12.63
2019-04-11T10:53:43.687Z,12.56
2019-04-11T10:54:42.924Z,12.61
2019-04-11T10:55:44.020Z,12.77
2019-04-11T10:56:43.290Z,12.77
2019-04-11T10:57:42.712Z,12.84
2019-04-11T10:58:42.775Z,12.79
2019-04-11T10:59:42.964Z,12.96
2019-04-11T11:00:43.159Z,12.91
2019-04-11T11:01:42.676Z,13.06
2019-04-11T11:02:42.671Z,13.21
2019-04-11T11:03:43.051Z,13.36
2019-04-11T11:04:43.056Z,13.41
2019-04-11T11:05:42.937Z,13.43
2019-04-11T11:06:42.628Z,13.59
2019-04-11T11:07:42.614Z,13.62
2019-04-11T11:08:43.682Z,13.53
2019-04-11T11:09:42.604Z,13.54
2019-04-11T11:10:43.772Z,13.53
2019-04-11T11:11:42.578Z,13.61
2019-04-11T11:12:43.532Z,13.68
2019-04-11T11:13:42.563Z,13.68
2019-04-11T11:14:42.901Z,13.71
2019-04-11T11:15:42.546Z,13.63
2019-04-11T11:16:44.856Z,13.71
2019-04-11T11:18:00.902Z,13.69
2019-04-11T11:19:15.521Z,13.50
2019-04-11T11:19:57.173Z,13.25
2019-04-11T11:20:50.221Z,13.27
2019-04-11T11:21:43.003Z,13.27
2019-04-11T11:22:43.409Z,13.35
2019-04-11T11:23:42.859Z,13.46
2019-04-11T11:24:42.463Z,13.38
2019-04-11T11:25:48.340Z,13.36
2019-04-11T11:26:43.258Z,13.51
2019-04-11T11:27:43.658Z,13.68
2019-04-11T11:28:43.167Z,13.79
2019-04-11T11:29:43.089Z,13.96
2019-04-11T11:30:42.413Z,13.80
2019-04-11T11:31:42.783Z,13.94
2019-04-11T11:32:43.304Z,14.05
2019-04-11T11:33:42.675Z,14.04
2019-04-11T11:34:42.374Z,13.93
2019-04-11T11:35:42.951Z,13.99
2019-04-11T11:36:43.645Z,13.94
2019-04-11T11:37:42.351Z,13.88
2019-04-11T11:38:42.341Z,13.91
2019-04-11T11:39:43.600Z,13.71
2019-04-11T11:40:43.216Z,13.61
2019-04-11T11:41:42.720Z,13.65
2019-04-11T11:42:42.305Z,13.57
2019-04-11T11:43:43.335Z,13.63
2019-04-11T11:44:42.288Z,13.57
2019-04-11T11:45:46.866Z,13.53
2019-04-11T11:46:42.620Z,13.61
2019-04-11T11:47:43.182Z,13.66
2019-04-11T11:48:46.312Z,13.51
2019-04-11T11:49:51.735Z,13.53
2019-04-11T11:50:42.723Z,13.53
2019-04-11T11:51:42.232Z,13.50
2019-04-11T11:52:42.809Z,13.50
2019-04-11T11:53:42.835Z,13.61
2019-04-11T11:54:42.201Z,13.55
2019-04-11T11:55:43.197Z,13.47
2019-04-11T11:56:42.534Z,13.54
2019-04-11T11:57:42.717Z,13.62
2019-04-11T11:58:43.485Z,13.63
2019-04-11T11:59:42.828Z,13.54
2019-04-11T12:00:42.220Z,13.59
2019-04-11T12:01:45.322Z,13.47
2019-04-11T12:02:42.432Z,13.41
2019-04-11T12:03:42.445Z,13.55
2019-04-11T12:04:42.255Z,13.53
2019-04-11T12:05:47.115Z,13.66
2019-04-11T12:06:43.029Z,13.66
2019-04-11T12:07:43.078Z,13.73
2019-04-11T12:08:46.605Z,13.73
2019-04-11T12:09:42.510Z,13.66
2019-04-11T12:10:42.062Z,13.55
2019-04-11T12:11:42.220Z,13.61
2019-04-11T12:12:42.180Z,13.63
2019-04-11T12:13:43.177Z,13.66
2019-04-11T12:14:43.379Z,13.68
2019-04-11T12:15:42.016Z,13.63
2019-04-11T12:16:42.007Z,13.53
2019-04-11T12:17:42.823Z,13.72
2019-04-11T12:18:48.083Z,13.65
2019-04-11T12:19:50.701Z,13.66
2019-04-11T12:20:44.807Z,13.68
2019-04-11T12:21:43.255Z,13.75
2019-04-11T12:22:42.228Z,13.86
2019-04-11T12:23:48.549Z,13.96
2019-04-11T12:24:42.975Z,13.87
2019-04-11T12:25:42.004Z,13.90
2019-04-11T12:26:43.248Z,13.96
2019-04-11T12:27:41.909Z,14.05
2019-04-11T12:28:41.900Z,14.11
2019-04-11T12:29:46.012Z,14.09
2019-04-11T12:30:42.014Z,14.17
2019-04-11T12:31:41.904Z,14.17
2019-04-11T12:32:41.864Z,14.13
2019-04-11T12:33:41.862Z,14.21
2019-04-11T12:34:44.739Z,14.26
2019-04-11T12:35:41.836Z,14.16
2019-04-11T12:36:44.699Z,14.09
2019-04-11T12:37:41.820Z,13.96
2019-04-11T12:38:41.810Z,13.94
2019-04-11T12:39:41.801Z,13.81
2019-04-11T12:40:41.792Z,13.69
2019-04-11T12:41:41.784Z,13.48
2019-04-11T12:42:41.775Z,13.43
2019-04-11T12:43:41.767Z,13.35
2019-04-11T12:44:41.757Z,13.25
2019-04-11T12:45:41.748Z,13.27
2019-04-11T12:46:41.738Z,13.17
2019-04-11T12:47:41.732Z,13.27
2019-04-11T12:48:41.721Z,13.39
2019-04-11T12:49:52.288Z,13.29
2019-04-11T12:50:41.704Z,13.27
2019-04-11T12:51:41.695Z,13.35
2019-04-11T12:52:41.688Z,13.28
2019-04-11T12:53:41.679Z,13.28
2019-04-11T12:54:41.668Z,13.14
2019-04-11T12:55:41.658Z,13.12
2019-04-11T12:56:41.648Z,13.06
2019-04-11T12:57:41.645Z,13.09
2019-04-11T12:58:41.630Z,13.04
2019-04-11T12:59:41.623Z,13.04
2019-04-11T13:00:41.611Z,13.06